sensor_id;sensor_type;location;lat;lon;timestamp;temperature;humidity
80220;DHT22;69535;37.974;23.708;2023-04-24T00:00:42;24.50;33.80
80220;DHT22;69535;37.974;23.708;2023-04-24T00:03:10;24.50;33.80
80220;DHT22;69535;37.974;23.708;2023-04-24T00:05:36;24.50;33.80
80220;DHT22;69535;37.974;23.708;2023-04-24T00:08:02;24.40;33.80
80220;DHT22;69535;37.974;23.708;2023-04-24T00:10:28;24.40;33.80
80220;DHT22;69535;37.974;23.708;2023-04-24T00:12:53;24.40;33.80
80220;DHT22;69535;37.974;23.708;2023-04-24T00:15:19;24.40;33.90
80220;DHT22;69535;37.974;23.708;2023-04-24T00:17:45;24.40;33.90
80220;DHT22;69535;37.974;23.708;2023-04-24T00:20:11;24.40;33.90
80220;DHT22;69535;37.974;23.708;2023-04-24T00:22:37;24.40;33.90
80220;DHT22;69535;37.974;23.708;2023-04-24T00:25:03;24.40;33.90
80220;DHT22;69535;37.974;23.708;2023-04-24T00:27:29;24.40;33.90
80220;DHT22;69535;37.974;23.708;2023-04-24T00:29:54;24.40;33.90
80220;DHT22;69535;37.974;23.708;2023-04-24T00:32:20;24.40;34.00
80220;DHT22;69535;37.974;23.708;2023-04-24T00:34:46;24.40;34.00
80220;DHT22;69535;37.974;23.708;2023-04-24T00:37:11;24.40;34.00
80220;DHT22;69535;37.974;23.708;2023-04-24T00:39:37;24.40;34.00
80220;DHT22;69535;37.974;23.708;2023-04-24T00:42:03;24.40;34.00
80220;DHT22;69535;37.974;23.708;2023-04-24T00:44:35;24.30;34.00
80220;DHT22;69535;37.974;23.708;2023-04-24T00:47:01;24.40;34.10
80220;DHT22;69535;37.974;23.708;2023-04-24T00:49:28;24.40;34.00
80220;DHT22;69535;37.974;23.708;2023-04-24T00:51:53;24.40;34.10
80220;DHT22;69535;37.974;23.708;2023-04-24T00:54:19;24.40;34.10
80220;DHT22;69535;37.974;23.708;2023-04-24T00:56:45;24.40;34.00
80220;DHT22;69535;37.974;23.708;2023-04-24T00:59:12;24.40;34.00
80220;DHT22;69535;37.974;23.708;2023-04-24T01:01:39;24.40;35.00
80220;DHT22;69535;37.974;23.708;2023-04-24T01:04:09;24.30;34.00
80220;DHT22;69535;37.974;23.708;2023-04-24T01:06:40;24.40;34.00
80220;DHT22;69535;37.974;23.708;2023-04-24T01:09:07;24.40;34.10
80220;DHT22;69535;37.974;23.708;2023-04-24T01:11:36;24.40;34.10
80220;DHT22;69535;37.974;23.708;2023-04-24T01:14:02;24.40;34.10
80220;DHT22;69535;37.974;23.708;2023-04-24T01:16:28;24.30;34.00
80220;DHT22;69535;37.974;23.708;2023-04-24T01:18:54;24.40;34.10
80220;DHT22;69535;37.974;23.708;2023-04-24T01:21:21;24.30;34.00
80220;DHT22;69535;37.974;23.708;2023-04-24T01:23:47;24.30;34.10
80220;DHT22;69535;37.974;23.708;2023-04-24T01:26:16;24.30;34.10
80220;DHT22;69535;37.974;23.708;2023-04-24T01:28:42;24.30;34.10
80220;DHT22;69535;37.974;23.708;2023-04-24T01:31:08;24.30;34.10
80220;DHT22;69535;37.974;23.708;2023-04-24T01:33:34;24.30;34.60
80220;DHT22;69535;37.974;23.708;2023-04-24T01:36:00;24.30;35.10
80220;DHT22;69535;37.974;23.708;2023-04-24T01:38:26;24.30;34.20
80220;DHT22;69535;37.974;23.708;2023-04-24T01:40:52;24.30;35.10
80220;DHT22;69535;37.974;23.708;2023-04-24T01:43:19;24.30;35.10
80220;DHT22;69535;37.974;23.708;2023-04-24T01:45:44;24.30;34.30
80220;DHT22;69535;37.974;23.708;2023-04-24T01:48:12;24.30;34.20
80220;DHT22;69535;37.974;23.708;2023-04-24T01:50:38;24.30;34.20
80220;DHT22;69535;37.974;23.708;2023-04-24T01:53:04;24.30;34.30
80220;DHT22;69535;37.974;23.708;2023-04-24T01:55:30;24.30;34.20
80220;DHT22;69535;37.974;23.708;2023-04-24T01:57:56;24.30;34.20
80220;DHT22;69535;37.974;23.708;2023-04-24T02:00:22;24.30;34.30
80220;DHT22;69535;37.974;23.708;2023-04-24T02:02:48;24.30;34.30
80220;DHT22;69535;37.974;23.708;2023-04-24T02:05:14;24.30;34.40
80220;DHT22;69535;37.974;23.708;2023-04-24T02:07:40;24.30;34.30
80220;DHT22;69535;37.974;23.708;2023-04-24T02:10:06;24.30;34.30
80220;DHT22;69535;37.974;23.708;2023-04-24T02:12:32;24.30;34.30
80220;DHT22;69535;37.974;23.708;2023-04-24T02:14:58;24.30;34.40
80220;DHT22;69535;37.974;23.708;2023-04-24T02:17:24;24.30;34.30
80220;DHT22;69535;37.974;23.708;2023-04-24T02:19:50;24.30;34.30
80220;DHT22;69535;37.974;23.708;2023-04-24T02:22:15;24.30;34.30
80220;DHT22;69535;37.974;23.708;2023-04-24T02:24:41;24.30;34.40
80220;DHT22;69535;37.974;23.708;2023-04-24T02:27:07;24.30;34.40
80220;DHT22;69535;37.974;23.708;2023-04-24T02:29:33;24.30;34.40
80220;DHT22;69535;37.974;23.708;2023-04-24T02:31:58;24.30;34.40
80220;DHT22;69535;37.974;23.708;2023-04-24T02:34:24;24.30;34.40
80220;DHT22;69535;37.974;23.708;2023-04-24T02:36:50;24.30;34.40
80220;DHT22;69535;37.974;23.708;2023-04-24T02:39:16;24.30;34.40
80220;DHT22;69535;37.974;23.708;2023-04-24T02:41:42;24.30;34.40
80220;DHT22;69535;37.974;23.708;2023-04-24T02:44:08;24.30;34.40
80220;DHT22;69535;37.974;23.708;2023-04-24T02:46:34;24.30;34.40
80220;DHT22;69535;37.974;23.708;2023-04-24T02:49:00;24.20;34.40
80220;DHT22;69535;37.974;23.708;2023-04-24T02:51:25;24.20;34.50
80220;DHT22;69535;37.974;23.708;2023-04-24T02:53:52;24.20;34.40
80220;DHT22;69535;37.974;23.708;2023-04-24T02:56:18;24.20;34.50
80220;DHT22;69535;37.974;23.708;2023-04-24T02:58:44;24.20;34.50
80220;DHT22;69535;37.974;23.708;2023-04-24T03:01:09;24.20;34.50
80220;DHT22;69535;37.974;23.708;2023-04-24T03:03:36;24.20;34.60
80220;DHT22;69535;37.974;23.708;2023-04-24T03:06:02;24.20;34.50
80220;DHT22;69535;37.974;23.708;2023-04-24T03:08:28;24.20;34.60
80220;DHT22;69535;37.974;23.708;2023-04-24T03:10:53;24.20;34.60
80220;DHT22;69535;37.974;23.708;2023-04-24T03:13:19;24.20;34.60
80220;DHT22;69535;37.974;23.708;2023-04-24T03:15:45;24.20;34.60
80220;DHT22;69535;37.974;23.708;2023-04-24T03:18:12;24.20;34.60
80220;DHT22;69535;37.974;23.708;2023-04-24T03:20:37;24.20;34.60
80220;DHT22;69535;37.974;23.708;2023-04-24T03:23:03;24.20;34.60
80220;DHT22;69535;37.974;23.708;2023-04-24T03:25:29;24.20;34.70
80220;DHT22;69535;37.974;23.708;2023-04-24T03:27:55;24.20;34.70
80220;DHT22;69535;37.974;23.708;2023-04-24T03:30:21;24.20;34.70
80220;DHT22;69535;37.974;23.708;2023-04-24T03:32:47;24.20;34.70
80220;DHT22;69535;37.974;23.708;2023-04-24T03:35:12;24.20;34.70
80220;DHT22;69535;37.974;23.708;2023-04-24T03:37:38;24.20;34.80
80220;DHT22;69535;37.974;23.708;2023-04-24T03:40:04;24.20;35.00
80220;DHT22;69535;37.974;23.708;2023-04-24T03:42:31;24.30;35.20
80220;DHT22;69535;37.974;23.708;2023-04-24T03:44:57;24.30;35.20
80220;DHT22;69535;37.974;23.708;2023-04-24T03:47:23;24.30;35.20
80220;DHT22;69535;37.974;23.708;2023-04-24T03:49:49;24.30;35.20
80220;DHT22;69535;37.974;23.708;2023-04-24T03:52:14;24.30;35.20
80220;DHT22;69535;37.974;23.708;2023-04-24T03:54:40;24.30;35.10
80220;DHT22;69535;37.974;23.708;2023-04-24T03:57:06;24.30;35.10
80220;DHT22;69535;37.974;23.708;2023-04-24T03:59:31;24.30;35.10
80220;DHT22;69535;37.974;23.708;2023-04-24T04:01:57;24.30;35.10
80220;DHT22;69535;37.974;23.708;2023-04-24T04:04:23;24.40;35.10
80220;DHT22;69535;37.974;23.708;2023-04-24T04:06:48;24.40;35.00
80220;DHT22;69535;37.974;23.708;2023-04-24T04:09:14;24.40;35.00
80220;DHT22;69535;37.974;23.708;2023-04-24T04:11:40;24.40;35.00
80220;DHT22;69535;37.974;23.708;2023-04-24T04:14:06;24.50;35.00
80220;DHT22;69535;37.974;23.708;2023-04-24T04:16:32;24.50;35.00
80220;DHT22;69535;37.974;23.708;2023-04-24T04:18:57;24.50;35.30
80220;DHT22;69535;37.974;23.708;2023-04-24T04:21:24;24.60;36.30
80220;DHT22;69535;37.974;23.708;2023-04-24T04:23:49;24.70;36.20
80220;DHT22;69535;37.974;23.708;2023-04-24T04:26:15;24.70;36.30
80220;DHT22;69535;37.974;23.708;2023-04-24T04:28:41;24.80;36.20
80220;DHT22;69535;37.974;23.708;2023-04-24T04:31:07;24.80;35.90
80220;DHT22;69535;37.974;23.708;2023-04-24T04:33:33;24.90;35.70
80220;DHT22;69535;37.974;23.708;2023-04-24T04:35:59;24.90;35.50
80220;DHT22;69535;37.974;23.708;2023-04-24T04:38:25;25.00;35.30
80220;DHT22;69535;37.974;23.708;2023-04-24T04:40:55;25.00;35.30
80220;DHT22;69535;37.974;23.708;2023-04-24T04:43:24;25.10;35.20
80220;DHT22;69535;37.974;23.708;2023-04-24T04:45:51;25.00;35.00
80220;DHT22;69535;37.974;23.708;2023-04-24T04:48:17;25.00;35.00
80220;DHT22;69535;37.974;23.708;2023-04-24T04:50:44;25.00;35.00
80220;DHT22;69535;37.974;23.708;2023-04-24T04:53:10;25.00;35.00
80220;DHT22;69535;37.974;23.708;2023-04-24T04:55:37;24.90;35.10
80220;DHT22;69535;37.974;23.708;2023-04-24T04:58:03;24.90;35.20
80220;DHT22;69535;37.974;23.708;2023-04-24T05:00:30;24.80;35.20
80220;DHT22;69535;37.974;23.708;2023-04-24T05:03:01;24.80;35.20
80220;DHT22;69535;37.974;23.708;2023-04-24T05:05:27;24.70;35.30
80220;DHT22;69535;37.974;23.708;2023-04-24T05:07:52;24.70;35.40
80220;DHT22;69535;37.974;23.708;2023-04-24T05:10:18;24.70;35.40
80220;DHT22;69535;37.974;23.708;2023-04-24T05:12:44;24.70;35.40
80220;DHT22;69535;37.974;23.708;2023-04-24T05:15:10;24.60;35.40
80220;DHT22;69535;37.974;23.708;2023-04-24T05:17:36;24.60;35.40
80220;DHT22;69535;37.974;23.708;2023-04-24T05:20:03;24.60;35.40
80220;DHT22;69535;37.974;23.708;2023-04-24T05:22:31;24.60;35.40
80220;DHT22;69535;37.974;23.708;2023-04-24T05:24:57;24.60;35.50
80220;DHT22;69535;37.974;23.708;2023-04-24T05:27:23;24.60;35.40
80220;DHT22;69535;37.974;23.708;2023-04-24T05:29:50;24.60;35.40
80220;DHT22;69535;37.974;23.708;2023-04-24T05:32:15;24.70;35.50
80220;DHT22;69535;37.974;23.708;2023-04-24T05:34:41;24.70;35.50
80220;DHT22;69535;37.974;23.708;2023-04-24T05:37:07;24.70;35.50
80220;DHT22;69535;37.974;23.708;2023-04-24T05:39:35;24.70;35.40
80220;DHT22;69535;37.974;23.708;2023-04-24T05:42:01;24.70;35.40
80220;DHT22;69535;37.974;23.708;2023-04-24T05:44:27;24.70;35.50
80220;DHT22;69535;37.974;23.708;2023-04-24T05:46:53;24.80;35.50
80220;DHT22;69535;37.974;23.708;2023-04-24T05:49:20;24.80;35.50
80220;DHT22;69535;37.974;23.708;2023-04-24T05:51:46;24.80;35.50
80220;DHT22;69535;37.974;23.708;2023-04-24T05:54:12;24.80;35.50
80220;DHT22;69535;37.974;23.708;2023-04-24T05:56:38;24.80;35.40
80220;DHT22;69535;37.974;23.708;2023-04-24T05:59:04;24.80;35.40
80220;DHT22;69535;37.974;23.708;2023-04-24T06:01:29;24.80;35.40
80220;DHT22;69535;37.974;23.708;2023-04-24T06:03:56;24.80;35.30
80220;DHT22;69535;37.974;23.708;2023-04-24T06:06:23;24.80;35.40
80220;DHT22;69535;37.974;23.708;2023-04-24T06:08:49;24.80;35.20
80220;DHT22;69535;37.974;23.708;2023-04-24T06:11:15;24.90;35.30
80220;DHT22;69535;37.974;23.708;2023-04-24T06:13:41;24.90;35.30
80220;DHT22;69535;37.974;23.708;2023-04-24T06:16:07;24.90;35.30
80220;DHT22;69535;37.974;23.708;2023-04-24T06:18:33;24.90;35.30
80220;DHT22;69535;37.974;23.708;2023-04-24T06:20:59;24.90;35.40
80220;DHT22;69535;37.974;23.708;2023-04-24T06:23:24;24.90;35.40
80220;DHT22;69535;37.974;23.708;2023-04-24T06:25:51;24.90;35.40
80220;DHT22;69535;37.974;23.708;2023-04-24T06:28:17;24.90;35.40
80220;DHT22;69535;37.974;23.708;2023-04-24T06:30:42;24.90;35.40
80220;DHT22;69535;37.974;23.708;2023-04-24T06:33:09;24.90;35.50
80220;DHT22;69535;37.974;23.708;2023-04-24T06:35:35;24.90;35.50
80220;DHT22;69535;37.974;23.708;2023-04-24T06:38:01;24.90;35.50
80220;DHT22;69535;37.974;23.708;2023-04-24T06:40:27;25.00;35.60
80220;DHT22;69535;37.974;23.708;2023-04-24T06:42:52;24.90;35.50
80220;DHT22;69535;37.974;23.708;2023-04-24T06:45:18;24.90;35.50
80220;DHT22;69535;37.974;23.708;2023-04-24T06:47:44;24.90;35.50
80220;DHT22;69535;37.974;23.708;2023-04-24T06:50:10;25.00;35.50
80220;DHT22;69535;37.974;23.708;2023-04-24T06:52:36;25.00;35.60
80220;DHT22;69535;37.974;23.708;2023-04-24T06:55:03;25.00;35.60
80220;DHT22;69535;37.974;23.708;2023-04-24T06:57:29;25.00;35.60
80220;DHT22;69535;37.974;23.708;2023-04-24T06:59:55;25.00;35.60
80220;DHT22;69535;37.974;23.708;2023-04-24T07:02:21;25.00;35.60
80220;DHT22;69535;37.974;23.708;2023-04-24T07:04:47;25.00;35.60
80220;DHT22;69535;37.974;23.708;2023-04-24T07:07:14;25.00;35.70
80220;DHT22;69535;37.974;23.708;2023-04-24T07:09:40;25.00;35.70
80220;DHT22;69535;37.974;23.708;2023-04-24T07:12:09;25.00;35.70
80220;DHT22;69535;37.974;23.708;2023-04-24T07:14:39;25.00;35.70
80220;DHT22;69535;37.974;23.708;2023-04-24T07:17:04;25.00;35.70
80220;DHT22;69535;37.974;23.708;2023-04-24T07:19:33;25.00;35.80
80220;DHT22;69535;37.974;23.708;2023-04-24T07:21:58;25.00;35.80
80220;DHT22;69535;37.974;23.708;2023-04-24T07:24:25;25.00;35.90
80220;DHT22;69535;37.974;23.708;2023-04-24T07:26:51;25.00;35.90
80220;DHT22;69535;37.974;23.708;2023-04-24T07:29:17;25.00;36.00
80220;DHT22;69535;37.974;23.708;2023-04-24T07:31:43;24.90;36.00
80220;DHT22;69535;37.974;23.708;2023-04-24T07:34:09;24.90;36.10
80220;DHT22;69535;37.974;23.708;2023-04-24T07:36:35;24.90;36.00
80220;DHT22;69535;37.974;23.708;2023-04-24T07:39:01;24.90;36.00
80220;DHT22;69535;37.974;23.708;2023-04-24T07:41:27;25.00;36.10
80220;DHT22;69535;37.974;23.708;2023-04-24T07:43:53;24.90;36.00
80220;DHT22;69535;37.974;23.708;2023-04-24T07:46:19;25.00;36.10
80220;DHT22;69535;37.974;23.708;2023-04-24T07:48:46;24.90;36.10
80220;DHT22;69535;37.974;23.708;2023-04-24T07:51:14;24.90;36.00
80220;DHT22;69535;37.974;23.708;2023-04-24T07:53:40;25.00;36.10
80220;DHT22;69535;37.974;23.708;2023-04-24T07:56:06;24.90;36.20
80220;DHT22;69535;37.974;23.708;2023-04-24T07:58:32;24.90;36.30
80220;DHT22;69535;37.974;23.708;2023-04-24T08:00:57;25.00;36.50
80220;DHT22;69535;37.974;23.708;2023-04-24T08:03:23;25.00;36.50
80220;DHT22;69535;37.974;23.708;2023-04-24T08:05:50;25.00;36.50
80220;DHT22;69535;37.974;23.708;2023-04-24T08:08:16;25.00;36.60
80220;DHT22;69535;37.974;23.708;2023-04-24T08:10:42;24.90;36.60
80220;DHT22;69535;37.974;23.708;2023-04-24T08:13:08;25.00;36.70
80220;DHT22;69535;37.974;23.708;2023-04-24T08:15:34;24.90;36.70
80220;DHT22;69535;37.974;23.708;2023-04-24T08:18:00;25.00;36.90
80220;DHT22;69535;37.974;23.708;2023-04-24T08:20:25;24.90;36.80
80220;DHT22;69535;37.974;23.708;2023-04-24T08:22:51;25.00;36.90
80220;DHT22;69535;37.974;23.708;2023-04-24T08:25:17;25.00;37.10
80220;DHT22;69535;37.974;23.708;2023-04-24T08:27:44;25.00;37.00
80220;DHT22;69535;37.974;23.708;2023-04-24T08:30:10;25.00;37.30
80220;DHT22;69535;37.974;23.708;2023-04-24T08:32:36;25.10;37.50
80220;DHT22;69535;37.974;23.708;2023-04-24T08:35:02;25.10;37.30
80220;DHT22;69535;37.974;23.708;2023-04-24T08:37:29;25.20;37.40
80220;DHT22;69535;37.974;23.708;2023-04-24T08:39:54;25.10;37.30
80220;DHT22;69535;37.974;23.708;2023-04-24T08:42:21;25.10;37.60
80220;DHT22;69535;37.974;23.708;2023-04-24T08:44:48;25.10;37.70
80220;DHT22;69535;37.974;23.708;2023-04-24T08:47:15;25.10;37.80
80220;DHT22;69535;37.974;23.708;2023-04-24T08:49:41;25.10;37.90
80220;DHT22;69535;37.974;23.708;2023-04-24T08:52:08;25.10;37.90
80220;DHT22;69535;37.974;23.708;2023-04-24T08:54:35;25.10;37.90
80220;DHT22;69535;37.974;23.708;2023-04-24T08:57:02;25.10;37.80
80220;DHT22;69535;37.974;23.708;2023-04-24T08:59:29;25.10;37.80
80220;DHT22;69535;37.974;23.708;2023-04-24T09:01:56;25.10;37.90
80220;DHT22;69535;37.974;23.708;2023-04-24T09:04:23;25.10;37.90
80220;DHT22;69535;37.974;23.708;2023-04-24T09:06:51;25.10;37.80
80220;DHT22;69535;37.974;23.708;2023-04-24T09:09:17;25.10;37.70
80220;DHT22;69535;37.974;23.708;2023-04-24T09:11:44;25.10;37.60
80220;DHT22;69535;37.974;23.708;2023-04-24T09:14:10;25.10;37.60
80220;DHT22;69535;37.974;23.708;2023-04-24T09:16:36;25.10;37.50
80220;DHT22;69535;37.974;23.708;2023-04-24T09:19:02;25.10;37.50
80220;DHT22;69535;37.974;23.708;2023-04-24T09:21:32;25.10;37.40
80220;DHT22;69535;37.974;23.708;2023-04-24T09:24:00;25.10;37.50
80220;DHT22;69535;37.974;23.708;2023-04-24T09:26:30;25.10;37.50
80220;DHT22;69535;37.974;23.708;2023-04-24T09:28:59;25.10;37.50
80220;DHT22;69535;37.974;23.708;2023-04-24T09:31:27;25.10;37.50
80220;DHT22;69535;37.974;23.708;2023-04-24T09:33:55;25.10;37.50
80220;DHT22;69535;37.974;23.708;2023-04-24T09:36:37;25.10;37.50
80220;DHT22;69535;37.974;23.708;2023-04-24T09:39:14;25.10;37.60
80220;DHT22;69535;37.974;23.708;2023-04-24T09:41:50;25.10;37.70
80220;DHT22;69535;37.974;23.708;2023-04-24T09:44:21;25.10;37.80
80220;DHT22;69535;37.974;23.708;2023-04-24T09:46:57;25.10;37.90
80220;DHT22;69535;37.974;23.708;2023-04-24T09:51:50;25.10;37.90
80220;DHT22;69535;37.974;23.708;2023-04-24T09:54:16;25.10;38.00
80220;DHT22;69535;37.974;23.708;2023-04-24T09:56:44;25.10;38.00
80220;DHT22;69535;37.974;23.708;2023-04-24T09:59:11;25.10;38.10
80220;DHT22;69535;37.974;23.708;2023-04-24T10:01:37;25.10;38.10
80220;DHT22;69535;37.974;23.708;2023-04-24T10:04:04;25.10;38.10
80220;DHT22;69535;37.974;23.708;2023-04-24T10:06:34;25.10;38.20
80220;DHT22;69535;37.974;23.708;2023-04-24T10:09:00;25.20;38.20
80220;DHT22;69535;37.974;23.708;2023-04-24T10:11:30;25.20;38.20
80220;DHT22;69535;37.974;23.708;2023-04-24T10:13:56;25.20;38.20
80220;DHT22;69535;37.974;23.708;2023-04-24T10:16:23;25.20;38.20
80220;DHT22;69535;37.974;23.708;2023-04-24T10:18:49;25.20;38.20
80220;DHT22;69535;37.974;23.708;2023-04-24T10:21:19;25.20;38.20
80220;DHT22;69535;37.974;23.708;2023-04-24T10:23:45;25.20;38.20
80220;DHT22;69535;37.974;23.708;2023-04-24T10:26:16;25.20;38.20
80220;DHT22;69535;37.974;23.708;2023-04-24T10:28:47;25.20;38.20
80220;DHT22;69535;37.974;23.708;2023-04-24T10:31:14;25.20;38.20
80220;DHT22;69535;37.974;23.708;2023-04-24T10:33:43;25.20;38.20
80220;DHT22;69535;37.974;23.708;2023-04-24T10:36:13;25.20;38.30
80220;DHT22;69535;37.974;23.708;2023-04-24T10:38:41;25.20;38.30
80220;DHT22;69535;37.974;23.708;2023-04-24T10:41:11;25.20;38.40
80220;DHT22;69535;37.974;23.708;2023-04-24T10:43:42;25.30;38.40
80220;DHT22;69535;37.974;23.708;2023-04-24T10:46:09;25.20;38.30
80220;DHT22;69535;37.974;23.708;2023-04-24T10:48:42;25.30;38.40
80220;DHT22;69535;37.974;23.708;2023-04-24T10:51:12;25.30;38.30
80220;DHT22;69535;37.974;23.708;2023-04-24T10:53:38;25.20;38.40
80220;DHT22;69535;37.974;23.708;2023-04-24T10:56:05;25.30;38.40
80220;DHT22;69535;37.974;23.708;2023-04-24T10:58:40;25.20;38.40
80220;DHT22;69535;37.974;23.708;2023-04-24T11:01:06;25.30;38.40
80220;DHT22;69535;37.974;23.708;2023-04-24T11:03:34;25.20;38.30
80220;DHT22;69535;37.974;23.708;2023-04-24T11:06:06;25.30;38.40
80220;DHT22;69535;37.974;23.708;2023-04-24T11:08:43;25.30;38.50
80220;DHT22;69535;37.974;23.708;2023-04-24T11:11:13;25.30;38.40
80220;DHT22;69535;37.974;23.708;2023-04-24T11:19:08;25.20;38.40
80220;DHT22;69535;37.974;23.708;2023-04-24T11:22:04;25.20;38.40
80220;DHT22;69535;37.974;23.708;2023-04-24T11:24:49;25.20;38.40
80220;DHT22;69535;37.974;23.708;2023-04-24T11:27:19;25.20;38.40
80220;DHT22;69535;37.974;23.708;2023-04-24T11:37:45;25.20;38.00
80220;DHT22;69535;37.974;23.708;2023-04-24T11:40:19;25.20;38.00
80220;DHT22;69535;37.974;23.708;2023-04-24T11:42:50;25.20;38.00
80220;DHT22;69535;37.974;23.708;2023-04-24T11:47:48;25.30;38.00
80220;DHT22;69535;37.974;23.708;2023-04-24T11:50:16;25.30;38.00
80220;DHT22;69535;37.974;23.708;2023-04-24T11:52:45;25.30;38.00
80220;DHT22;69535;37.974;23.708;2023-04-24T11:57:44;25.40;37.90
80220;DHT22;69535;37.974;23.708;2023-04-24T12:00:20;25.30;37.90
80220;DHT22;69535;37.974;23.708;2023-04-24T12:02:47;25.30;38.00
80220;DHT22;69535;37.974;23.708;2023-04-24T12:05:23;25.30;38.10
80220;DHT22;69535;37.974;23.708;2023-04-24T12:07:49;25.30;38.10
80220;DHT22;69535;37.974;23.708;2023-04-24T12:10:23;25.30;38.30
80220;DHT22;69535;37.974;23.708;2023-04-24T12:12:50;25.30;38.40
80220;DHT22;69535;37.974;23.708;2023-04-24T12:15:18;25.30;38.50
80220;DHT22;69535;37.974;23.708;2023-04-24T12:17:44;25.30;38.50
80220;DHT22;69535;37.974;23.708;2023-04-24T12:20:11;25.20;38.50
80220;DHT22;69535;37.974;23.708;2023-04-24T12:22:57;25.30;38.60
80220;DHT22;69535;37.974;23.708;2023-04-24T12:25:25;25.30;38.50
80220;DHT22;69535;37.974;23.708;2023-04-24T12:28:08;25.30;38.60
80220;DHT22;69535;37.974;23.708;2023-04-24T12:30:44;25.30;38.50
80220;DHT22;69535;37.974;23.708;2023-04-24T12:33:10;25.30;38.50
80220;DHT22;69535;37.974;23.708;2023-04-24T12:35:36;25.30;38.40
80220;DHT22;69535;37.974;23.708;2023-04-24T12:38:06;25.30;38.30
80220;DHT22;69535;37.974;23.708;2023-04-24T12:40:33;25.30;38.20
80220;DHT22;69535;37.974;23.708;2023-04-24T12:42:59;25.30;38.10
80220;DHT22;69535;37.974;23.708;2023-04-24T12:45:25;25.30;38.10
80220;DHT22;69535;37.974;23.708;2023-04-24T12:47:50;25.30;38.00
80220;DHT22;69535;37.974;23.708;2023-04-24T12:50:16;25.30;38.00
80220;DHT22;69535;37.974;23.708;2023-04-24T12:52:43;25.30;38.00
80220;DHT22;69535;37.974;23.708;2023-04-24T12:55:09;25.30;38.00
80220;DHT22;69535;37.974;23.708;2023-04-24T12:57:37;25.30;37.90
80220;DHT22;69535;37.974;23.708;2023-04-24T13:00:04;25.30;37.90
80220;DHT22;69535;37.974;23.708;2023-04-24T13:02:30;25.30;37.80
80220;DHT22;69535;37.974;23.708;2023-04-24T13:04:59;25.30;37.60
80220;DHT22;69535;37.974;23.708;2023-04-24T13:07:26;25.30;37.40
80220;DHT22;69535;37.974;23.708;2023-04-24T13:09:53;25.30;37.40
80220;DHT22;69535;37.974;23.708;2023-04-24T13:12:19;25.30;37.30
80220;DHT22;69535;37.974;23.708;2023-04-24T13:14:46;25.30;37.00
80220;DHT22;69535;37.974;23.708;2023-04-24T13:17:12;25.30;36.80
80220;DHT22;69535;37.974;23.708;2023-04-24T13:19:42;25.30;36.70
80220;DHT22;69535;37.974;23.708;2023-04-24T13:22:10;25.30;36.60
80220;DHT22;69535;37.974;23.708;2023-04-24T13:24:36;25.20;36.60
80220;DHT22;69535;37.974;23.708;2023-04-24T13:27:03;25.20;36.60
80220;DHT22;69535;37.974;23.708;2023-04-24T13:29:29;25.20;36.70
80220;DHT22;69535;37.974;23.708;2023-04-24T13:31:55;25.20;36.80
80220;DHT22;69535;37.974;23.708;2023-04-24T13:34:24;25.20;36.90
80220;DHT22;69535;37.974;23.708;2023-04-24T13:36:55;25.20;36.80
80220;DHT22;69535;37.974;23.708;2023-04-24T13:39:21;25.20;36.70
80220;DHT22;69535;37.974;23.708;2023-04-24T13:41:47;25.20;36.80
80220;DHT22;69535;37.974;23.708;2023-04-24T13:44:14;25.20;36.90
80220;DHT22;69535;37.974;23.708;2023-04-24T13:46:41;25.10;36.90
80220;DHT22;69535;37.974;23.708;2023-04-24T13:49:07;25.10;37.00
80220;DHT22;69535;37.974;23.708;2023-04-24T13:51:33;25.10;37.00
80220;DHT22;69535;37.974;23.708;2023-04-24T13:53:59;25.10;37.20
80220;DHT22;69535;37.974;23.708;2023-04-24T13:56:25;25.10;37.20
80220;DHT22;69535;37.974;23.708;2023-04-24T13:58:51;25.10;37.20
80220;DHT22;69535;37.974;23.708;2023-04-24T14:01:17;25.10;37.40
80220;DHT22;69535;37.974;23.708;2023-04-24T14:03:43;25.10;37.50
80220;DHT22;69535;37.974;23.708;2023-04-24T14:06:09;25.10;37.60
80220;DHT22;69535;37.974;23.708;2023-04-24T14:08:34;25.10;37.60
80220;DHT22;69535;37.974;23.708;2023-04-24T14:11:00;25.10;37.60
80220;DHT22;69535;37.974;23.708;2023-04-24T14:13:26;25.10;37.70
80220;DHT22;69535;37.974;23.708;2023-04-24T14:15:52;25.10;37.80
80220;DHT22;69535;37.974;23.708;2023-04-24T14:18:18;25.10;37.80
80220;DHT22;69535;37.974;23.708;2023-04-24T14:20:44;25.00;37.80
80220;DHT22;69535;37.974;23.708;2023-04-24T14:23:10;25.00;37.90
80220;DHT22;69535;37.974;23.708;2023-04-24T14:25:36;25.00;37.90
80220;DHT22;69535;37.974;23.708;2023-04-24T14:28:02;25.00;37.90
80220;DHT22;69535;37.974;23.708;2023-04-24T14:30:28;25.00;37.80
80220;DHT22;69535;37.974;23.708;2023-04-24T14:32:53;25.00;37.70
80220;DHT22;69535;37.974;23.708;2023-04-24T14:35:19;25.00;37.60
80220;DHT22;69535;37.974;23.708;2023-04-24T14:37:45;25.00;37.40
80220;DHT22;69535;37.974;23.708;2023-04-24T14:40:11;25.00;37.40
80220;DHT22;69535;37.974;23.708;2023-04-24T14:42:37;25.00;37.30
80220;DHT22;69535;37.974;23.708;2023-04-24T14:45:03;25.00;37.30
80220;DHT22;69535;37.974;23.708;2023-04-24T14:47:29;25.00;37.30
80220;DHT22;69535;37.974;23.708;2023-04-24T14:49:54;25.00;37.30
80220;DHT22;69535;37.974;23.708;2023-04-24T14:52:20;25.00;37.40
80220;DHT22;69535;37.974;23.708;2023-04-24T14:54:46;25.00;37.50
80220;DHT22;69535;37.974;23.708;2023-04-24T14:57:12;25.00;37.60
80220;DHT22;69535;37.974;23.708;2023-04-24T14:59:38;25.00;37.90
80220;DHT22;69535;37.974;23.708;2023-04-24T15:02:05;25.00;38.00
80220;DHT22;69535;37.974;23.708;2023-04-24T15:04:31;25.00;38.10
80220;DHT22;69535;37.974;23.708;2023-04-24T15:06:57;25.00;38.10
80220;DHT22;69535;37.974;23.708;2023-04-24T15:09:23;24.90;38.00
80220;DHT22;69535;37.974;23.708;2023-04-24T15:11:50;24.90;37.90
80220;DHT22;69535;37.974;23.708;2023-04-24T15:14:17;25.00;37.70
80220;DHT22;69535;37.974;23.708;2023-04-24T15:16:43;24.90;37.50
80220;DHT22;69535;37.974;23.708;2023-04-24T15:19:09;24.90;37.30
80220;DHT22;69535;37.974;23.708;2023-04-24T15:21:36;24.90;37.10
80220;DHT22;69535;37.974;23.708;2023-04-24T15:24:02;24.90;37.10
80220;DHT22;69535;37.974;23.708;2023-04-24T15:26:28;24.90;37.20
80220;DHT22;69535;37.974;23.708;2023-04-24T15:28:53;24.90;37.20
80220;DHT22;69535;37.974;23.708;2023-04-24T15:31:19;24.90;37.10
80220;DHT22;69535;37.974;23.708;2023-04-24T15:33:45;24.90;37.10